createdAt,value
2016-09-16T00:00:51.646Z,22.67
2016-09-16T00:02:01.638Z,22.75
2016-09-16T00:03:11.624Z,22.64
2016-09-16T00:04:21.908Z,22.66
2016-09-16T00:05:31.908Z,22.66
2016-09-16T00:06:42.228Z,22.73
2016-09-16T00:07:52.521Z,22.69
2016-09-16T00:09:02.822Z,22.66
2016-09-16T00:10:13.115Z,22.66
2016-09-16T00:11:23.402Z,22.67
2016-09-16T00:12:33.365Z,22.63
2016-09-16T00:13:43.348Z,22.7
2016-09-16T00:14:53.652Z,22.66
2016-09-16T00:16:03.958Z,22.69
2016-09-16T00:17:13.941Z,22.63
2016-09-16T00:18:24.231Z,22.64
2016-09-16T00:19:34.216Z,22.55
2016-09-16T00:20:44.515Z,22.59
2016-09-16T00:21:54.813Z,22.54
2016-09-16T00:23:04.488Z,22.45
2016-09-16T00:24:14.479Z,22.46
2016-09-16T00:25:24.766Z,22.42
2016-09-16T00:26:35.051Z,22.44
2016-09-16T00:27:45.345Z,22.46
2016-09-16T00:28:55.626Z,22.45
2016-09-16T00:30:05.923Z,22.45
2016-09-16T00:31:15.906Z,22.51
2016-09-16T00:32:26.437Z,22.55
2016-09-16T00:33:36.414Z,22.51
2016-09-16T00:34:46.699Z,22.49
2016-09-16T00:35:56.673Z,22.44
2016-09-16T00:37:06.655Z,22.44
2016-09-16T00:38:16.945Z,22.45
2016-09-16T00:39:27.232Z,22.41
2016-09-16T00:40:37.515Z,22.31
2016-09-16T00:41:47.491Z,22.34
2016-09-16T00:42:57.771Z,22.33
2016-09-16T00:44:08.070Z,22.36
2016-09-16T00:45:18.351Z,22.29
2016-09-16T00:46:28.647Z,22.29
2016-09-16T00:47:38.949Z,22.29
2016-09-16T00:48:49.245Z,22.3
2016-09-16T00:49:59.528Z,22.3
2016-09-16T00:51:09.510Z,22.23
2016-09-16T00:52:19.807Z,22.26
2016-09-16T00:53:29.802Z,22.16
2016-09-16T00:54:40.090Z,22.27
2016-09-16T00:55:50.391Z,22.23
2016-09-16T00:57:00.679Z,22.15
2016-09-16T00:58:10.661Z,22.29
2016-09-16T00:59:20.938Z,22.16
2016-09-16T01:00:30.914Z,22.12
2016-09-16T01:01:41.219Z,22.09
2016-09-16T01:02:51.192Z,22.11
2016-09-16T01:04:01.497Z,22.18
2016-09-16T01:05:11.527Z,22.16
2016-09-16T01:06:21.817Z,22.15
2016-09-16T01:07:32.109Z,22.09
2016-09-16T01:08:42.429Z,22.05
2016-09-16T01:09:52.412Z,22.07
2016-09-16T01:11:02.690Z,22.07
2016-09-16T01:12:13.010Z,22.02
2016-09-16T01:13:22.991Z,21.92
2016-09-16T01:14:33.274Z,21.96
2016-09-16T01:15:43.579Z,21.96
2016-09-16T01:16:53.863Z,21.89
2016-09-16T01:18:04.138Z,21.82
2016-09-16T01:19:13.830Z,21.86
2016-09-16T01:20:24.134Z,21.92
2016-09-16T01:21:34.443Z,21.92
2016-09-16T01:22:44.422Z,21.83
2016-09-16T01:23:54.404Z,21.83
2016-09-16T01:25:04.383Z,21.83
2016-09-16T01:26:14.357Z,21.8
2016-09-16T01:27:24.337Z,21.82
2016-09-16T01:28:33.689Z,21.76
2016-09-16T01:29:43.686Z,21.73
2016-09-16T01:30:53.681Z,21.76
2016-09-16T01:32:03.965Z,21.78
2016-09-16T01:33:14.246Z,21.71
2016-09-16T01:34:24.542Z,21.76
2016-09-16T01:35:34.835Z,21.68
2016-09-16T01:36:45.124Z,21.64
2016-09-16T01:37:55.423Z,21.7
2016-09-16T01:39:05.415Z,21.71
2016-09-16T01:40:15.700Z,21.68
2016-09-16T01:41:25.995Z,21.61
2016-09-16T01:42:36.279Z,21.58
2016-09-16T01:43:46.255Z,21.61
2016-09-16T01:44:56.543Z,21.61
2016-09-16T01:46:06.848Z,21.62
2016-09-16T01:47:16.527Z,21.61
2016-09-16T01:48:26.804Z,21.52
2016-09-16T01:49:37.114Z,21.58
2016-09-16T01:50:47.401Z,21.49
2016-09-16T01:51:57.388Z,21.46
2016-09-16T01:53:07.354Z,21.59
2016-09-16T01:54:17.641Z,21.51
2016-09-16T01:55:27.923Z,21.51
2016-09-16T01:56:38.201Z,21.52
2016-09-16T01:57:47.880Z,21.49
2016-09-16T01:58:58.175Z,21.46
2016-09-16T02:00:08.468Z,21.48
2016-09-16T02:01:18.761Z,21.48
2016-09-16T02:02:28.733Z,21.38
2016-09-16T02:03:38.708Z,21.38
2016-09-16T02:04:49.013Z,21.45
2016-09-16T02:05:59.373Z,21.41
2016-09-16T02:07:09.051Z,21.41
2016-09-16T02:08:19.333Z,21.36
2016-09-16T02:09:29.628Z,21.41
2016-09-16T02:10:39.600Z,21.34
2016-09-16T02:11:49.909Z,21.3
2016-09-16T02:13:00.201Z,21.23
2016-09-16T02:14:10.194Z,21.22
2016-09-16T02:15:20.204Z,21.23
2016-09-16T02:16:30.177Z,21.21
2016-09-16T02:17:40.173Z,21.23
2016-09-16T02:18:50.168Z,21.22
2016-09-16T02:20:00.448Z,21.21
2016-09-16T02:21:10.748Z,21.25
2016-09-16T02:22:21.031Z,21.3
2016-09-16T02:23:31.331Z,21.16
2016-09-16T02:24:41.609Z,21.19
2016-09-16T02:25:51.903Z,21.18
2016-09-16T02:27:02.211Z,21.27
2016-09-16T02:28:11.872Z,21.22
2016-09-16T02:29:22.168Z,21.19
2016-09-16T02:30:32.501Z,21.21
2016-09-16T02:31:42.808Z,21.15
2016-09-16T02:32:53.106Z,21.09
2016-09-16T02:34:03.391Z,21.08
2016-09-16T02:35:13.675Z,21.12
2016-09-16T02:36:23.659Z,21.04
2016-09-16T02:37:33.631Z,20.98
2016-09-16T02:38:43.909Z,21.01
2016-09-16T02:39:54.195Z,20.94
2016-09-16T02:41:04.487Z,20.98
2016-09-16T02:42:14.762Z,20.94
2016-09-16T02:43:24.748Z,20.91
2016-09-16T02:44:35.034Z,20.97
2016-09-16T02:45:45.019Z,20.9
2016-09-16T02:46:54.993Z,20.96
2016-09-16T02:48:04.967Z,20.88
2016-09-16T02:49:15.249Z,20.91
2016-09-16T02:50:25.531Z,20.96
2016-09-16T02:51:35.820Z,20.93
2016-09-16T02:52:45.488Z,20.94
2016-09-16T02:53:55.760Z,20.94
2016-09-16T02:55:06.061Z,20.91
2016-09-16T02:56:16.338Z,20.94
2016-09-16T02:57:26.632Z,20.85
2016-09-16T02:58:36.921Z,20.85
2016-09-16T02:59:46.893Z,20.88
2016-09-16T03:00:57.180Z,20.82
2016-09-16T03:32:30.103Z,17.52
2016-09-16T03:33:40.079Z,17.43
2016-09-16T03:34:50.354Z,17.45
2016-09-16T03:36:00.019Z,17.43
2016-09-16T03:37:10.318Z,17.55
2016-09-16T03:38:20.615Z,17.65
2016-09-16T03:39:30.915Z,17.63
2016-09-16T03:40:41.192Z,17.84
2016-09-16T03:41:51.178Z,17.95
2016-09-16T03:43:01.488Z,18.17
2016-09-16T03:44:11.479Z,18.16
2016-09-16T03:45:21.458Z,18.47
2016-09-16T03:46:31.748Z,18.54
2016-09-16T03:47:42.049Z,18.69
2016-09-16T03:48:52.336Z,18.84
2016-09-16T03:50:02.617Z,18.91
2016-09-16T03:51:12.593Z,19.09
2016-09-16T03:52:22.879Z,19.19
2016-09-16T03:53:32.857Z,19.23
2016-09-16T03:54:43.144Z,19.3
2016-09-16T03:55:53.420Z,19.49
2016-09-16T03:57:03.091Z,19.55
2016-09-16T03:58:13.409Z,19.52
2016-09-16T03:59:23.688Z,19.63
2016-09-16T04:00:33.986Z,19.79
2016-09-16T04:01:44.289Z,19.75
2016-09-16T04:02:54.609Z,19.79
2016-09-16T04:04:04.586Z,19.87
2016-09-16T04:05:14.887Z,19.92
2016-09-16T04:06:25.182Z,20
2016-09-16T04:07:35.172Z,20.01
2016-09-16T04:08:45.454Z,20
2016-09-16T04:09:55.743Z,20.1
2016-09-16T04:11:06.038Z,20.11
2016-09-16T04:12:16.355Z,20.12
2016-09-16T04:13:26.339Z,20.16
2016-09-16T04:14:36.018Z,20.27
2016-09-16T04:15:46.337Z,20.2
2016-09-16T04:16:56.666Z,20.27
2016-09-16T04:18:06.977Z,20.29
2016-09-16T04:19:17.270Z,20.27
2016-09-16T04:20:27.257Z,20.29
2016-09-16T04:21:37.263Z,20.23
2016-09-16T04:22:47.584Z,20.34
2016-09-16T04:23:57.584Z,20.38
2016-09-16T04:25:07.887Z,20.48
2016-09-16T04:26:18.181Z,20.3
2016-09-16T04:27:28.476Z,20.48
2016-09-16T04:28:38.457Z,20.44
2016-09-16T04:29:48.752Z,20.46
2016-09-16T04:30:59.041Z,20.42
2016-09-16T04:32:09.021Z,20.44
2016-09-16T04:33:19.324Z,20.44
2016-09-16T04:34:29.606Z,20.49
2016-09-16T04:35:39.935Z,20.4
2016-09-16T04:36:49.924Z,20.41
2016-09-16T04:38:00.226Z,20.49
2016-09-16T04:39:10.528Z,20.48
2016-09-16T04:40:20.817Z,20.56
2016-09-16T04:41:30.797Z,20.51
2016-09-16T04:42:40.780Z,20.56
2016-09-16T04:43:51.064Z,20.44
2016-09-16T04:45:01.047Z,20.67
2016-09-16T04:46:11.028Z,20.61
2016-09-16T04:47:21.315Z,20.63
2016-09-16T04:48:31.288Z,20.67
2016-09-16T04:49:41.263Z,20.67
2016-09-16T04:50:50.631Z,20.61
2016-09-16T04:52:00.927Z,20.75
2016-09-16T04:53:10.906Z,20.82
2016-09-16T04:54:21.199Z,20.78
2016-09-16T04:55:31.486Z,20.9
2016-09-16T04:56:41.784Z,20.96
2016-09-16T04:57:52.087Z,20.94
2016-09-16T04:59:02.412Z,20.91
2016-09-16T05:00:12.384Z,21.06
2016-09-16T05:01:22.677Z,21.08
2016-09-16T05:02:32.976Z,21.11
2016-09-16T05:03:43.265Z,21.18
2016-09-16T05:04:53.242Z,21.09
2016-09-16T05:06:03.533Z,21.16
2016-09-16T05:07:13.830Z,21.25
2016-09-16T05:08:23.812Z,21.3
2016-09-16T05:09:34.097Z,21.36
2016-09-16T05:10:44.405Z,21.53
2016-09-16T05:11:54.377Z,21.53
2016-09-16T05:13:04.373Z,21.49
2016-09-16T05:14:13.728Z,21.61
2016-09-16T05:15:23.711Z,21.58
2016-09-16T05:16:33.989Z,21.7
2016-09-16T05:17:43.981Z,21.76
2016-09-16T05:18:53.344Z,21.9
2016-09-16T05:20:03.643Z,21.83
2016-09-16T05:21:13.935Z,21.94
2016-09-16T05:22:24.265Z,21.94
2016-09-16T05:23:34.241Z,22.07
2016-09-16T05:24:44.229Z,22.12
2016-09-16T05:25:54.242Z,22.11
2016-09-16T05:27:04.523Z,22.23
2016-09-16T05:28:14.830Z,22.26
2016-09-16T05:29:24.837Z,22.3
2016-09-16T05:30:34.513Z,22.27
2016-09-16T05:31:44.490Z,22.34
2016-09-16T05:32:54.787Z,22.39
2016-09-16T05:34:04.770Z,22.44
2016-09-16T05:35:14.740Z,22.46
2016-09-16T05:36:24.736Z,22.54
2016-09-16T05:37:35.014Z,22.6
2016-09-16T05:38:44.991Z,22.59
2016-09-16T05:39:54.667Z,22.63
2016-09-16T05:41:04.957Z,22.81
2016-09-16T05:42:15.241Z,22.85
2016-09-16T05:43:25.251Z,22.89
2016-09-16T05:44:34.933Z,23
2016-09-16T05:45:44.610Z,23.12
2016-09-16T05:46:54.913Z,23.22
2016-09-16T05:48:04.894Z,23.26
2016-09-16T05:49:14.895Z,23.28
2016-09-16T05:50:24.875Z,23.34
2016-09-16T05:51:34.868Z,23.34
2016-09-16T05:52:45.161Z,23.32
2016-09-16T05:53:55.438Z,23.35
2016-09-16T05:55:05.420Z,23.44
2016-09-16T05:56:15.706Z,23.48
2016-09-16T05:57:26.017Z,23.55
2016-09-16T05:58:35.698Z,23.53
2016-09-16T05:59:45.671Z,23.52
2016-09-16T06:00:55.657Z,23.48
2016-09-16T06:02:05.935Z,23.55
2016-09-16T06:03:15.930Z,23.45
2016-09-16T06:04:26.222Z,23.57
2016-09-16T06:05:36.194Z,23.5
2016-09-16T06:06:46.481Z,23.52
2016-09-16T06:07:56.158Z,23.66
2016-09-16T06:09:06.470Z,23.62
2016-09-16T06:10:16.766Z,23.66
2016-09-16T06:11:27.068Z,23.71
2016-09-16T06:12:37.371Z,23.79
2016-09-16T06:13:47.666Z,23.85
2016-09-16T06:14:57.017Z,23.89
2016-09-16T06:16:06.989Z,24.03
2016-09-16T06:17:17.285Z,24.08
2016-09-16T06:18:26.963Z,24.11
2016-09-16T06:19:36.648Z,24.18
2016-09-16T06:20:46.657Z,24.17
2016-09-16T06:21:56.971Z,24.29
2016-09-16T06:23:06.959Z,24.34
2016-09-16T06:24:16.316Z,24.36
2016-09-16T06:25:26.603Z,24.54
2016-09-16T06:26:36.574Z,24.66
2016-09-16T06:27:46.567Z,24.7
2016-09-16T06:28:56.263Z,24.83
2016-09-16T06:30:06.234Z,24.86
2016-09-16T06:31:15.907Z,24.86
2016-09-16T06:32:26.198Z,24.94
2016-09-16T06:33:36.178Z,25.07
2016-09-16T06:34:45.907Z,25.17
2016-09-16T06:35:55.898Z,25.19
2016-09-16T06:37:06.186Z,25.15
2016-09-16T06:38:16.188Z,25.22
2016-09-16T06:39:25.873Z,25.32
2016-09-16T06:40:35.858Z,25.44
2016-09-16T06:41:45.855Z,25.54
2016-09-16T06:42:56.157Z,25.67
2016-09-16T06:44:06.139Z,25.64
2016-09-16T06:45:16.131Z,25.69
2016-09-16T06:46:25.808Z,25.71
2016-09-16T06:47:35.480Z,25.74
2016-09-16T06:48:45.155Z,25.6
2016-09-16T06:49:55.446Z,25.59
2016-09-16T06:51:05.752Z,25.56
2016-09-16T06:52:16.047Z,25.51
2016-09-16T06:53:26.357Z,25.52
2016-09-16T06:54:36.648Z,25.49
2016-09-16T06:55:46.631Z,25.51
2016-09-16T06:56:56.323Z,25.48
2016-09-16T06:58:06.324Z,25.49
2016-09-16T06:59:16.304Z,25.52
2016-09-16T07:00:26.296Z,25.59
2016-09-16T07:01:35.994Z,25.59
2016-09-16T07:02:46.288Z,25.6
2016-09-16T07:03:56.261Z,25.7
2016-09-16T07:05:05.623Z,25.62
2016-09-16T07:06:15.612Z,25.66
2016-09-16T07:07:25.611Z,25.6
2016-09-16T07:08:35.621Z,25.59
2016-09-16T07:09:45.915Z,25.57
2016-09-16T07:10:55.898Z,25.6
2016-09-16T07:12:06.176Z,25.69
2016-09-16T07:13:15.845Z,25.74
2016-09-16T07:14:26.128Z,25.7
2016-09-16T07:15:36.112Z,25.75
2016-09-16T07:16:46.408Z,25.74
2016-09-16T07:17:56.698Z,25.75
2016-09-16T07:19:06.691Z,25.74
2016-09-16T07:20:16.686Z,25.75
2016-09-16T07:21:26.675Z,25.7
2016-09-16T07:22:36.663Z,25.82
2016-09-16T07:23:46.654Z,25.82
2016-09-16T07:24:56.952Z,25.85
2016-09-16T07:26:06.637Z,25.74
2016-09-16T07:27:16.619Z,25.89
2016-09-16T07:28:26.632Z,25.86
2016-09-16T07:29:36.933Z,25.91
2016-09-16T07:30:46.300Z,25.94
2016-09-16T07:31:56.293Z,25.96
2016-09-16T07:33:06.579Z,26.04
2016-09-16T07:34:16.575Z,26
2016-09-16T07:35:26.927Z,26.16
2016-09-16T07:36:36.604Z,26.12
2016-09-16T07:37:46.607Z,26.17
2016-09-16T07:38:56.599Z,26.26
2016-09-16T07:40:06.597Z,26.26
2016-09-16T07:41:16.896Z,26.3
2016-09-16T07:42:26.932Z,26.35
2016-09-16T07:43:36.914Z,26.37
2016-09-16T07:44:47.226Z,26.41
2016-09-16T07:45:57.221Z,26.44
2016-09-16T07:47:06.891Z,26.38
2016-09-16T07:48:17.186Z,26.5
2016-09-16T07:49:26.866Z,26.57
2016-09-16T07:50:36.849Z,26.57
2016-09-16T07:51:46.521Z,26.61
2016-09-16T07:52:56.217Z,26.72
2016-09-16T07:54:06.210Z,26.79
2016-09-16T07:55:15.890Z,26.81
2016-09-16T07:56:25.888Z,26.81
2016-09-16T07:57:35.593Z,26.97
2016-09-16T07:58:45.889Z,26.96
2016-09-16T07:59:55.563Z,26.93
2016-09-16T08:01:05.585Z,26.91
2016-09-16T08:02:15.591Z,26.91
2016-09-16T08:03:25.589Z,26.9
2016-09-16T08:04:35.894Z,27.09
2016-09-16T08:05:45.872Z,27.09
2016-09-16T08:06:56.194Z,27.19
2016-09-16T08:08:06.190Z,27.16
2016-09-16T08:09:16.477Z,27.31
2016-09-16T08:10:26.159Z,27.41
2016-09-16T08:11:36.133Z,27.52
2016-09-16T08:12:45.840Z,27.61
2016-09-16T08:13:55.823Z,27.71
2016-09-16T08:15:05.540Z,27.84
2016-09-16T08:16:15.541Z,27.9
2016-09-16T08:17:25.829Z,27.94
2016-09-16T08:18:36.139Z,27.98
2016-09-16T08:19:46.417Z,28.06
2016-09-16T08:20:56.395Z,28.09
2016-09-16T08:22:06.680Z,28.08
2016-09-16T08:23:16.696Z,28.14
2016-09-16T08:24:27.298Z,28.14
2016-09-16T08:25:36.665Z,28.24
2016-09-16T08:26:46.951Z,28.28
2016-09-16T08:27:57.240Z,28.39
2016-09-16T08:29:07.540Z,28.42
2016-09-16T08:30:17.827Z,28.57
2016-09-16T08:31:28.146Z,28.63
2016-09-16T08:32:38.436Z,28.64
2016-09-16T08:33:48.742Z,28.67
2016-09-16T08:34:59.033Z,28.75
2016-09-16T08:36:09.360Z,28.85
2016-09-16T08:37:19.061Z,28.82
2016-09-16T08:38:29.365Z,28.98
2016-09-16T08:39:39.675Z,28.98
2016-09-16T08:40:49.961Z,28.98
2016-09-16T08:42:00.258Z,28.97
2016-09-16T08:43:10.559Z,29.11
2016-09-16T08:44:20.541Z,29.2
2016-09-16T08:45:30.523Z,29.35
2016-09-16T08:46:40.834Z,29.3
2016-09-16T08:47:51.337Z,29.45
2016-09-16T08:49:01.312Z,29.55
2016-09-16T08:50:11.625Z,29.65
2016-09-16T08:51:22.135Z,29.72
2016-09-16T08:52:32.443Z,29.77
2016-09-16T08:53:42.736Z,29.91
2016-09-16T08:54:53.048Z,30
2016-09-16T08:56:03.347Z,30.03
2016-09-16T08:57:13.355Z,30.09
2016-09-16T08:58:23.361Z,30.25
2016-09-16T08:59:33.654Z,30.26
2016-09-16T09:00:43.620Z,30.25
2016-09-16T09:01:53.909Z,30.45
2016-09-16T09:03:03.923Z,30.64
2016-09-16T09:04:13.920Z,30.77
2016-09-16T09:05:24.242Z,30.91
2016-09-16T09:06:34.260Z,31.03
2016-09-16T09:07:44.589Z,31.12
2016-09-16T09:08:54.593Z,31.16
2016-09-16T09:10:04.622Z,31.15
2016-09-16T09:11:14.327Z,31.23
2016-09-16T09:12:24.333Z,31.19
2016-09-16T09:13:34.319Z,31.33
2016-09-16T09:14:44.339Z,31.45
2016-09-16T09:15:54.647Z,31.45
2016-09-16T09:17:04.671Z,31.45
2016-09-16T09:18:14.680Z,31.53
2016-09-16T09:19:24.695Z,31.68
2016-09-16T09:20:34.395Z,31.8
2016-09-16T09:21:44.427Z,31.86
2016-09-16T09:22:54.447Z,31.9
2016-09-16T09:24:04.750Z,31.81
2016-09-16T09:25:14.472Z,31.8
2016-09-16T09:26:24.660Z,31.86
2016-09-16T09:27:34.352Z,31.93
2016-09-16T09:28:44.346Z,31.97
2016-09-16T09:29:54.365Z,31.94
2016-09-16T09:31:05.392Z,32.05
2016-09-16T09:32:19.195Z,32.09
2016-09-16T09:33:31.379Z,32.23
2016-09-16T09:34:41.690Z,32.35
2016-09-16T09:35:52.017Z,32.54
2016-09-16T09:37:02.046Z,32.61
2016-09-16T09:38:12.382Z,32.81
2016-09-16T09:39:22.693Z,32.76
2016-09-16T09:40:32.702Z,32.91
2016-09-16T09:41:42.993Z,32.98
2016-09-16T09:42:53.336Z,33.02
2016-09-16T09:44:03.648Z,33.13
2016-09-16T09:45:13.654Z,33.12
2016-09-16T09:46:23.350Z,33.05
2016-09-16T09:47:33.642Z,33.02
2016-09-16T09:48:43.670Z,33.08
2016-09-16T09:49:54.038Z,33.2
2016-09-16T09:51:03.767Z,33.18
2016-09-16T09:52:13.473Z,33.17
2016-09-16T09:53:23.803Z,33.08
2016-09-16T09:54:34.139Z,33.23
2016-09-16T09:55:44.479Z,33.21
2016-09-16T09:56:54.249Z,33.29
2016-09-16T09:58:04.591Z,33.39
2016-09-16T09:59:14.902Z,33.59
2016-09-16T10:00:24.593Z,33.59
2016-09-16T10:01:34.884Z,33.73
2016-09-16T10:02:45.182Z,33.74
2016-09-16T10:03:54.867Z,33.69
2016-09-16T10:05:04.875Z,33.62
2016-09-16T10:06:15.180Z,33.53
2016-09-16T10:07:25.501Z,33.31
2016-09-16T10:08:35.509Z,33.34
2016-09-16T10:09:45.502Z,33.18
2016-09-16T10:10:55.483Z,33.11
2016-09-16T10:12:05.794Z,33.05
2016-09-16T10:13:15.771Z,32.98
2016-09-16T10:14:25.451Z,33.01
2016-09-16T10:15:35.128Z,33.06
2016-09-16T10:16:45.111Z,33.02
2016-09-16T10:17:54.801Z,33.06
2016-09-16T10:19:04.799Z,33.05
2016-09-16T10:20:14.802Z,33.17
2016-09-16T10:21:24.794Z,33.17
2016-09-16T10:22:35.085Z,33.18
2016-09-16T10:23:45.396Z,33.16
2016-09-16T10:24:55.087Z,33.26
2016-09-16T10:26:05.389Z,33.17
2016-09-16T10:27:15.372Z,33.23
2016-09-16T10:28:25.372Z,33.23
2016-09-16T10:29:35.062Z,33.28
2016-09-16T10:30:45.047Z,33.32
2016-09-16T10:31:55.053Z,33.26
2016-09-16T10:33:05.043Z,33.34
2016-09-16T10:34:15.339Z,33.12
2016-09-16T10:35:25.643Z,33.2
2016-09-16T10:36:35.630Z,33.2
2016-09-16T10:37:45.616Z,33.24
2016-09-16T10:38:55.613Z,33.16
2016-09-16T10:40:05.909Z,33.36
2016-09-16T10:41:15.892Z,33.34
2016-09-16T10:42:26.192Z,33.28
2016-09-16T10:43:36.185Z,33.23
2016-09-16T10:44:46.501Z,33.16
2016-09-16T10:45:56.489Z,33.31
2016-09-16T10:47:06.165Z,33.36
2016-09-16T10:48:16.472Z,33.41
2016-09-16T10:49:26.453Z,33.43
2016-09-16T10:50:36.163Z,33.46
2016-09-16T10:51:46.183Z,33.56
2016-09-16T10:52:56.183Z,33.59
2016-09-16T10:54:06.480Z,33.66
2016-09-16T10:55:16.157Z,33.69
2016-09-16T10:56:25.849Z,33.78
2016-09-16T10:57:35.850Z,33.87
2016-09-16T10:58:46.150Z,33.99
2016-09-16T10:59:55.835Z,33.89
2016-09-16T11:01:05.836Z,34.03
2016-09-16T11:02:15.832Z,34.11
2016-09-16T11:03:25.843Z,34.08
2016-09-16T11:04:35.847Z,33.83
2016-09-16T11:05:45.844Z,33.97
2016-09-16T11:06:55.858Z,34.03
2016-09-16T11:08:06.170Z,34.05
2016-09-16T11:09:16.467Z,34.14
2016-09-16T11:10:26.774Z,34.05
2016-09-16T11:11:37.086Z,33.87
2016-09-16T11:12:46.149Z,33.97
2016-09-16T11:13:56.464Z,34.02
2016-09-16T11:15:06.771Z,34.02
2016-09-16T11:16:16.779Z,33.69
2016-09-16T11:17:26.754Z,33.69
2016-09-16T11:18:36.443Z,33.87
2016-09-16T11:19:46.459Z,33.97
2016-09-16T11:20:56.454Z,34.08
2016-09-16T11:22:06.444Z,34.03
2016-09-16T11:23:16.183Z,33.71
2016-09-16T11:24:26.475Z,33.85
2016-09-16T11:25:36.453Z,33.95
2016-09-16T11:26:45.839Z,34.05
2016-09-16T11:27:55.830Z,34.21
2016-09-16T11:29:06.132Z,34.26
2016-09-16T11:30:16.118Z,34.26
2016-09-16T11:31:26.098Z,34.32
2016-09-16T11:32:35.773Z,34.14
2016-09-16T11:33:46.065Z,34.19
2016-09-16T11:34:56.063Z,34.19
2016-09-16T11:36:06.037Z,34.14
2016-09-16T11:37:16.039Z,34.24
2016-09-16T11:38:26.131Z,34.36
2016-09-16T11:39:35.806Z,34.4
2016-09-16T11:40:46.482Z,34.66
2016-09-16T11:41:56.774Z,34.83
2016-09-16T11:43:07.081Z,34.9
2016-09-16T11:44:17.413Z,34.81
2016-09-16T11:45:27.098Z,34.71
2016-09-16T11:46:37.374Z,34.74
2016-09-16T11:47:47.371Z,34.72
2016-09-16T11:48:57.676Z,34.66
2016-09-16T11:50:08.223Z,34.77
2016-09-16T11:51:18.552Z,34.74
2016-09-16T11:52:27.616Z,34.63
2016-09-16T11:53:37.919Z,34.58
2016-09-16T11:54:47.614Z,34.45
2016-09-16T11:55:57.927Z,34.37
2016-09-16T11:57:07.916Z,34.21
2016-09-16T11:58:17.920Z,34.19
2016-09-16T11:59:28.228Z,34.27
2016-09-16T12:00:38.227Z,34.34
2016-09-16T12:01:48.782Z,34.37
2016-09-16T12:02:58.790Z,34.45
2016-09-16T12:04:08.790Z,34.41
2016-09-16T12:05:19.117Z,34.49
2016-09-16T12:06:29.411Z,34.54
2016-09-16T12:07:39.381Z,34.45
2016-09-16T12:08:49.835Z,34.48
2016-09-16T12:09:59.523Z,34.61
2016-09-16T12:11:09.514Z,34.56
2016-09-16T12:12:19.533Z,34.64
2016-09-16T12:13:29.530Z,34.72
2016-09-16T12:14:39.843Z,34.72
2016-09-16T12:15:49.857Z,34.72
2016-09-16T12:17:00.154Z,34.61
2016-09-16T12:18:10.163Z,34.51
2016-09-16T12:19:19.856Z,34.48
2016-09-16T12:20:29.566Z,34.41
2016-09-16T12:21:39.598Z,34.32
2016-09-16T12:22:49.905Z,34.32
2016-09-16T12:24:00.199Z,34.29
2016-09-16T12:25:10.499Z,34.26
2016-09-16T12:26:20.484Z,34.11
2016-09-16T12:27:30.193Z,34.15
2016-09-16T12:28:40.189Z,34.12
2016-09-16T12:29:51.501Z,34.21
2016-09-16T12:31:01.935Z,34.22
2016-09-16T12:32:12.241Z,34.27
2016-09-16T12:33:22.540Z,34.3
2016-09-16T12:34:32.537Z,34.18
2016-09-16T12:35:42.852Z,34.08
2016-09-16T12:36:52.537Z,34.05
2016-09-16T12:38:02.552Z,34.05
2016-09-16T12:39:12.539Z,34.03
2016-09-16T12:40:22.773Z,34.1
2016-09-16T12:41:32.780Z,33.97
2016-09-16T12:42:42.776Z,34.03
2016-09-16T12:43:52.188Z,33.95
2016-09-16T12:45:02.186Z,34
2016-09-16T12:46:12.490Z,34
2016-09-16T12:47:22.478Z,33.96
2016-09-16T12:48:32.476Z,34.06
2016-09-16T12:49:42.155Z,34.11
2016-09-16T12:50:52.474Z,34.08
2016-09-16T12:52:02.465Z,34.02
2016-09-16T12:53:12.783Z,34.05
2016-09-16T12:54:23.085Z,33.99
2016-09-16T12:55:32.465Z,34.08
2016-09-16T12:56:42.457Z,34.02
2016-09-16T12:57:52.134Z,34.03
2016-09-16T12:59:02.127Z,34.08
2016-09-16T13:00:12.455Z,34.02
2016-09-16T13:01:22.139Z,34.05
2016-09-16T13:02:31.843Z,34.17
2016-09-16T13:03:41.529Z,34.1
2016-09-16T13:04:51.850Z,34.18
2016-09-16T13:06:01.837Z,34.15
2016-09-16T13:07:12.138Z,34.17
2016-09-16T13:08:22.450Z,34.19
2016-09-16T13:09:32.433Z,34.27
2016-09-16T13:10:42.129Z,34.37
2016-09-16T13:11:52.439Z,34.43
2016-09-16T13:13:02.742Z,34.34
2016-09-16T13:14:12.112Z,34.3
2016-09-16T13:15:22.104Z,34.27
2016-09-16T13:16:32.416Z,34.33
2016-09-16T13:17:42.728Z,34.37
2016-09-16T13:18:53.039Z,34.33
2016-09-16T13:20:02.727Z,34.37
2016-09-16T13:21:12.727Z,34.4
2016-09-16T13:22:23.040Z,34.33
2016-09-16T13:23:33.027Z,34.27
2016-09-16T13:24:42.719Z,34.36
2016-09-16T13:25:53.027Z,34.39
2016-09-16T13:27:03.330Z,34.41
2016-09-16T13:28:13.325Z,34.39
2016-09-16T13:29:23.016Z,34.4
2016-09-16T13:30:33.322Z,34.41
2016-09-16T13:31:43.007Z,34.45
2016-09-16T13:32:53.012Z,34.43
2016-09-16T13:34:03.005Z,34.41
2016-09-16T13:35:13.308Z,34.43
2016-09-16T13:36:23.289Z,34.4
2016-09-16T13:37:33.293Z,34.52
2016-09-16T13:38:43.600Z,34.55
2016-09-16T13:39:53.914Z,34.56
2016-09-16T13:41:04.222Z,34.56
2016-09-16T13:42:13.903Z,34.45
2016-09-16T13:43:23.586Z,34.34
2016-09-16T13:44:33.266Z,34.39
2016-09-16T13:45:43.559Z,34.27
2016-09-16T13:46:53.561Z,34.36
2016-09-16T13:48:03.856Z,34.34
2016-09-16T13:49:13.858Z,34.29
2016-09-16T13:50:23.544Z,34.37
2016-09-16T13:51:33.542Z,34.4
2016-09-16T13:52:43.544Z,34.27
2016-09-16T13:53:52.923Z,34.22
2016-09-16T13:55:02.902Z,34.08
2016-09-16T13:56:12.905Z,34.12
2016-09-16T13:57:23.191Z,34.08
2016-09-16T13:58:32.557Z,34.05
2016-09-16T13:59:42.853Z,34.11
2016-09-16T14:00:53.161Z,34.08
2016-09-16T14:02:03.143Z,34.18
2016-09-16T14:03:13.459Z,34.18
2016-09-16T14:04:23.439Z,34.15
2016-09-16T14:05:33.139Z,34.24
2016-09-16T14:06:43.449Z,34.15
2016-09-16T14:07:53.762Z,34.19
2016-09-16T14:09:03.754Z,34.12
2016-09-16T14:10:13.434Z,33.97
2016-09-16T14:11:23.420Z,33.87
2016-09-16T14:12:33.412Z,33.81
2016-09-16T14:13:43.726Z,33.81
2016-09-16T14:14:54.016Z,33.69
2016-09-16T14:16:03.698Z,33.65
2016-09-16T14:17:13.088Z,33.61
2016-09-16T14:18:23.087Z,33.58
2016-09-16T14:19:33.090Z,33.61
2016-09-16T14:20:43.109Z,33.52
2016-09-16T14:21:53.111Z,33.53
2016-09-16T14:23:03.104Z,33.55
2016-09-16T14:24:13.089Z,33.5
2016-09-16T14:25:22.765Z,33.44
2016-09-16T14:26:32.770Z,33.39
2016-09-16T14:27:42.768Z,33.21
2016-09-16T14:28:52.759Z,33.26
2016-09-16T14:30:02.777Z,33.08
2016-09-16T14:31:12.790Z,33.02
2016-09-16T14:32:22.787Z,32.99
2016-09-16T14:33:33.079Z,32.9
2016-09-16T14:34:43.386Z,32.9
2016-09-16T14:35:53.363Z,32.74
2016-09-16T14:37:03.668Z,32.65
2016-09-16T14:38:13.969Z,32.47
2016-09-16T14:39:24.258Z,32.53
2016-09-16T14:40:34.239Z,32.43
2016-09-16T14:41:44.219Z,32.37
2016-09-16T14:42:54.555Z,32.28
2016-09-16T14:44:04.557Z,32.2
2016-09-16T14:45:14.856Z,32.16
2016-09-16T14:46:24.851Z,31.94
2016-09-16T14:47:34.522Z,31.91
2016-09-16T14:48:44.825Z,31.91
2016-09-16T14:49:55.117Z,31.77
2016-09-16T14:51:05.429Z,31.74
2016-09-16T14:52:15.438Z,31.6
2016-09-16T14:53:25.122Z,31.45
2016-09-16T14:54:35.426Z,31.43
2016-09-16T14:55:45.745Z,31.4
2016-09-16T14:56:55.727Z,31.31
2016-09-16T14:58:05.725Z,31.25
2016-09-16T14:59:15.711Z,31.13
2016-09-16T15:00:25.715Z,31.16
2016-09-16T15:01:35.698Z,31.01
2016-09-16T15:02:45.691Z,31.08
2016-09-16T15:03:56.014Z,31.08
2016-09-16T15:05:06.015Z,31.01
2016-09-16T15:06:15.715Z,30.96
2016-09-16T15:07:25.411Z,30.99
2016-09-16T15:08:35.089Z,30.91
2016-09-16T15:09:45.379Z,30.89
2016-09-16T15:10:54.476Z,30.86
2016-09-16T15:12:04.472Z,30.77
2016-09-16T15:13:14.481Z,30.81
2016-09-16T15:14:24.760Z,30.84
2016-09-16T15:15:34.461Z,30.77
2016-09-16T15:16:44.767Z,30.73
2016-09-16T15:17:54.451Z,30.75
2016-09-16T15:19:04.458Z,30.73
2016-09-16T15:20:14.760Z,30.7
2016-09-16T15:21:25.052Z,30.67
2016-09-16T15:22:35.345Z,30.52
2016-09-16T15:23:45.640Z,30.54
2016-09-16T15:24:55.314Z,30.35
2016-09-16T15:26:05.298Z,30.4
2016-09-16T15:27:15.585Z,30.39
2016-09-16T15:28:25.575Z,30.31
2016-09-16T15:29:35.882Z,30.26
2016-09-16T15:30:45.873Z,30.29
2016-09-16T15:31:55.565Z,30.28
2016-09-16T15:33:05.564Z,30.14
2016-09-16T15:34:15.855Z,30.18
2016-09-16T15:35:26.187Z,30.21
2016-09-16T15:36:36.177Z,30.16